This is the latest recevied weather packets stored in our database for station/object HB9TQJ-6. If no packets are shown the sender has not sent any weather packets the latest 10 day(s).
| Time | Temp. | Humidity | Pressure | Rain* | Wind** | Luminosity | Snow |
|---|---|---|---|---|---|---|---|
| 1777752302 | 18.33° C | 59% | 1016.2 hPa | 0 mm | - | - | - |
| 1777748087 | 19.44° C | 58% | 1015.8 hPa | 0 mm | - | - | - |
| 1777727619 | 21.67° C | 51% | 1018.3 hPa | 0 mm | - | - | - |
| 1777727017 | 21.67° C | 53% | 1018.5 hPa | 0 mm | - | - | - |
| 1777726416 | 21.67° C | 53% | 1018.6 hPa | 0 mm | - | - | - |
| 1777725813 | 21.11° C | 53% | 1018.7 hPa | 0 mm | - | - | - |
| 1777720998 | 20° C | 56% | 1019.9 hPa | 0 mm | - | - | - |
| 1777720418 | 20° C | 56% | 1020.1 hPa | 0 mm | - | - | - |
| 1777716181 | 18.33° C | 56% | 1021.1 hPa | 0 mm | - | - | - |
| 1777714977 | 17.78° C | 58% | 1021.3 hPa | 0 mm | - | - | - |
| 1777712590 | 16.67° C | 59% | 1021.9 hPa | 0 mm | - | - | - |
| 1777702335 | 12.22° C | 65% | 1022.6 hPa | 0 mm | - | - | - |
| 1777695713 | 9.44° C | 69% | 1022.2 hPa | 0 mm | - | - | - |
| 1777692703 | 10° C | 69% | 1022.2 hPa | 0 mm | - | - | - |
| 1777678257 | 11.67° C | 65% | 1022.5 hPa | 0 mm | - | - | - |
| 1777674043 | 12.78° C | 61% | 1022.2 hPa | 0 mm | - | - | - |
| 1777669828 | 13.33° C | 58% | 1022.1 hPa | 0 mm | - | - | - |
| 1777666817 | 15° C | 53% | 1021.8 hPa | 0 mm | - | - | - |
| 1777665012 | 15° C | 52% | 1021.8 hPa | 0 mm | - | - | - |
| 1777663808 | 15.56° C | 52% | 1021.5 hPa | 0 mm | - | - | - |
| 1777659594 | 18.33° C | 46% | 1021.2 hPa | 0 mm | - | - | - |
| 1777654777 | 19.44° C | 40% | 1021 hPa | 0 mm | - | - | - |
| 1777649360 | 19.44° C | 39% | 1021.4 hPa | 0 mm | - | - | - |
| 1777643339 | 19.44° C | 43% | 1022.2 hPa | 0 mm | - | - | - |
| 1777638523 | 17.78° C | 47% | 1022.9 hPa | 0 mm | - | - | - |
* Rain latest hour (hover to see other rain measurements)
** Current wind speed in m/s (hover to see current wind gust speed)